EFKU

Kuopio Airport

Kuopio / Siilinjärvi, Finland
TAF EFKU 182338Z 1900/1924 28005KT 9999 OVC005 TEMPO 1900/1917 1400 -SN BKN004 BECMG 1917/1919 3000 -SN SCT005 OVC030 TEMPO 1919/1924 1200 SN OVC004
Issued Valid From Valid To
Jan-18 @ 23:38 UTC
(3 hours ago)
Jan-19 @ 00:00 UTC
(2 hours ago)
Jan-20 @ 00:00 UTC
(in 22 hours)
Jan-19 @ 00:00 to Jan-19 @ 17:00
TAF EFKU 182338Z 1900/1924 28005KT 9999 OVC005
Wind Visibility Clouds
280° at 5 knots 10,000+ meters
  • Overcast at 500' AGL
Temporary Jan-19 @ 00:00 to Jan-19 @ 17:00
TEMPO 1900/1917 1400 -SN BKN004
Visibility Clouds Conditions
1,400 meters
  • Broken at 400' AGL
  • Light Snow
Becoming Jan-19 @ 17:00 to Jan-20 @ 00:00
BECMG 1917/1919 3000 -SN SCT005 OVC030
Wind Visibility Clouds Conditions
280° at 5 knots 2,993 meters
  • Scattered at 500' AGL
  • Overcast at 3,000' AGL
  • Light Snow
Temporary Jan-19 @ 19:00 to Jan-20 @ 00:00
TEMPO 1919/1924 1200 SN OVC004
Visibility Clouds Conditions
1,207 meters
  • Overcast at 400' AGL
  • Snow
TAF EFKU 182338Z 1900/1924 28005KT 9999 OVC005 TEMPO 1900/1917 1400 -SN BKN004 BECMG 1917/1919 3000 -SN SCT005 OVC030 TEMPO 1919/1924 1200 SN OVC004
Issued Jan-18 @ 23:38 UTC
(3 hours ago)
Valid From Jan-19 @ 00:00 UTC
(2 hours ago)
Valid To Jan-20 @ 00:00 UTC
(in 22 hours)
Jan-19 @ 00:00 - Jan-19 @ 17:00
Wind Visibility
280° at 5 knots 10,000+ meters
Clouds
  • Overcast at 500' AGL
Temporary Jan-19 @ 00:00 - Jan-19 @ 17:00
Clouds
  • Broken at 400' AGL
Conditions
  • Light Snow
Becoming Jan-19 @ 17:00 - Jan-20 @ 00:00
Wind Visibility
280° at 5 knots 2,993 meters
Clouds
  • Scattered at 500' AGL
  • Overcast at 3,000' AGL
Conditions
  • Light Snow
Temporary Jan-19 @ 19:00 - Jan-20 @ 00:00
Clouds
  • Overcast at 400' AGL
Conditions
  • Snow